createdAt,value
2018-05-21T00:00:57.826Z,14.30
2018-05-21T00:03:26.174Z,14.30
2018-05-21T00:05:54.487Z,14.30
2018-05-21T00:08:23.573Z,14.50
2018-05-21T00:10:52.641Z,14.60
2018-05-21T00:13:20.967Z,14.60
2018-05-21T00:15:49.275Z,14.40
2018-05-21T00:18:17.596Z,14.40
2018-05-21T00:20:45.905Z,14.30
2018-05-21T00:23:14.235Z,14.40
2018-05-21T00:25:42.530Z,14.30
2018-05-21T00:28:11.625Z,14.30
2018-05-21T00:30:40.685Z,14.30
2018-05-21T00:33:09.020Z,14.30
2018-05-21T00:35:37.319Z,14.30
2018-05-21T00:38:05.647Z,14.40
2018-05-21T00:40:33.951Z,14.30
2018-05-21T00:43:02.291Z,14.20
2018-05-21T00:45:30.605Z,14.10
2018-05-21T00:47:59.682Z,14.00
2018-05-21T00:50:28.759Z,14.20
2018-05-21T00:52:57.086Z,14.20
2018-05-21T00:55:37.424Z,14.30
2018-05-21T00:58:05.765Z,14.10
2018-05-21T01:00:34.081Z,14.10
2018-05-21T01:03:03.173Z,14.20
2018-05-21T01:05:32.234Z,14.10
2018-05-21T01:08:00.558Z,14.10
2018-05-21T01:10:28.870Z,13.60
2018-05-21T01:12:57.222Z,13.60
2018-05-21T01:15:25.530Z,13.70
2018-05-21T01:17:53.843Z,13.70
2018-05-21T01:20:22.170Z,13.70
2018-05-21T01:22:50.476Z,13.70
2018-05-21T01:25:18.806Z,13.60
2018-05-21T01:27:47.137Z,13.50
2018-05-21T01:30:15.451Z,13.60
2018-05-21T01:32:43.794Z,13.50
2018-05-21T01:35:12.117Z,13.40
2018-05-21T01:37:41.194Z,13.60
2018-05-21T01:40:10.279Z,13.70
2018-05-21T01:42:38.591Z,13.70
2018-05-21T01:45:06.912Z,13.70
2018-05-21T01:47:35.210Z,13.70
2018-05-21T01:50:04.302Z,13.50
2018-05-21T01:52:32.599Z,13.50
2018-05-21T01:55:01.700Z,13.40
2018-05-21T01:57:30.012Z,13.40
2018-05-21T01:59:58.321Z,13.50
2018-05-21T02:02:26.617Z,13.30
2018-05-21T02:04:55.709Z,13.20
2018-05-21T02:07:24.889Z,13.30
2018-05-21T02:09:53.213Z,13.30
2018-05-21T02:12:21.522Z,13.20
2018-05-21T02:14:49.847Z,13.20
2018-05-21T02:17:18.937Z,13.10
2018-05-21T02:19:48.030Z,13.10
2018-05-21T02:22:17.118Z,13.00
2018-05-21T02:24:45.429Z,13.00
2018-05-21T02:27:13.752Z,13.00
2018-05-21T02:29:42.051Z,12.90
2018-05-21T02:32:10.370Z,12.80
2018-05-21T02:34:38.813Z,12.80
2018-05-21T02:37:07.137Z,12.80
2018-05-21T02:39:35.434Z,12.90
2018-05-21T02:42:03.773Z,12.80
2018-05-21T02:44:32.097Z,12.70
2018-05-21T02:47:00.589Z,12.50
2018-05-21T02:49:28.896Z,12.50
2018-05-21T02:51:58.004Z,12.40
2018-05-21T02:54:27.083Z,12.50
2018-05-21T02:56:56.166Z,12.40
2018-05-21T02:59:24.465Z,12.40
2018-05-21T03:01:52.793Z,12.50
2018-05-21T03:04:21.099Z,12.50
2018-05-21T03:06:49.433Z,12.50
2018-05-21T03:09:17.726Z,12.40
2018-05-21T03:11:46.054Z,12.50
2018-05-21T03:14:15.245Z,12.40
2018-05-21T03:16:44.331Z,12.30
2018-05-21T03:19:13.459Z,12.30
2018-05-21T03:21:41.785Z,12.30
2018-05-21T03:24:10.120Z,12.40
2018-05-21T03:26:38.449Z,12.30
2018-05-21T03:29:06.803Z,12.20
2018-05-21T03:31:35.112Z,12.10
2018-05-21T03:34:04.237Z,12.00
2018-05-21T03:36:32.531Z,11.90
2018-05-21T03:39:00.894Z,12.00
2018-05-21T03:41:29.245Z,12.00
2018-05-21T03:43:58.384Z,11.90
2018-05-21T03:46:26.738Z,11.90
2018-05-21T03:48:55.073Z,11.90
2018-05-21T03:51:23.408Z,11.90
2018-05-21T03:53:51.745Z,11.80
2018-05-21T03:56:20.835Z,11.60
2018-05-21T03:59:00.971Z,11.50
2018-05-21T04:01:41.751Z,11.60
2018-05-21T04:04:10.078Z,11.60
2018-05-21T04:06:38.395Z,11.60
2018-05-21T04:09:06.765Z,11.80
2018-05-21T04:11:35.094Z,11.80
2018-05-21T04:14:03.472Z,11.80
2018-05-21T04:16:32.546Z,11.80
2018-05-21T04:19:01.662Z,11.80
2018-05-21T04:21:29.998Z,11.80
2018-05-21T04:23:58.366Z,11.80
2018-05-21T04:26:26.694Z,11.80
2018-05-21T04:28:55.076Z,11.70
2018-05-21T04:31:24.168Z,11.80
2018-05-21T04:33:52.467Z,11.80
2018-05-21T04:36:20.874Z,11.90
2018-05-21T04:38:49.912Z,11.90
2018-05-21T04:41:18.260Z,11.90
2018-05-21T04:43:46.590Z,12.00
2018-05-21T04:46:15.701Z,12.00
2018-05-21T04:48:44.057Z,12.00
2018-05-21T04:51:13.155Z,12.30
2018-05-21T04:53:42.250Z,12.30
2018-05-21T04:56:11.509Z,12.40
2018-05-21T04:58:39.850Z,12.40
2018-05-21T05:01:08.214Z,12.50
2018-05-21T05:03:37.309Z,12.80
2018-05-21T05:06:05.657Z,12.80
2018-05-21T05:08:33.954Z,13.00
2018-05-21T05:11:03.047Z,12.90
2018-05-21T05:13:32.145Z,13.00
2018-05-21T05:16:00.499Z,13.00
2018-05-21T05:18:28.833Z,13.00
2018-05-21T05:20:57.223Z,13.10
2018-05-21T05:23:25.520Z,13.20
2018-05-21T05:25:53.865Z,13.40
2018-05-21T05:28:22.201Z,13.60
2018-05-21T05:30:51.333Z,13.90
2018-05-21T05:36:20.553Z,14.50
2018-05-21T05:38:48.901Z,14.40
2018-05-21T05:44:25.636Z,15.00
2018-05-21T05:49:54.457Z,15.30
2018-05-21T05:52:22.785Z,15.40
2018-05-21T05:54:51.138Z,15.50
2018-05-21T05:57:19.501Z,15.70
2018-05-21T05:59:47.835Z,15.80
2018-05-21T06:02:16.158Z,15.80
2018-05-21T06:04:44.517Z,15.90
2018-05-21T06:07:12.846Z,16.00
2018-05-21T06:09:41.209Z,15.80
2018-05-21T06:12:10.306Z,16.20
2018-05-21T06:14:38.625Z,16.10
2018-05-21T06:17:07.703Z,16.10
2018-05-21T06:19:36.818Z,16.00
2018-05-21T06:22:05.886Z,16.20
2018-05-21T06:24:34.986Z,16.70
2018-05-21T06:27:04.113Z,16.60
2018-05-21T06:29:32.435Z,16.60
2018-05-21T06:32:00.768Z,16.50
2018-05-21T06:34:30.556Z,16.90
2018-05-21T06:36:58.873Z,16.90
2018-05-21T06:39:27.229Z,16.90
2018-05-21T06:41:55.574Z,17.40
2018-05-21T06:44:23.921Z,17.40
2018-05-21T06:46:52.247Z,17.70
2018-05-21T06:49:20.585Z,17.90
2018-05-21T06:51:48.888Z,17.80
2018-05-21T06:54:17.249Z,18.20
2018-05-21T06:56:45.563Z,17.90
2018-05-21T06:59:14.663Z,17.90
2018-05-21T07:01:43.783Z,18.00
2018-05-21T07:04:12.131Z,18.00
2018-05-21T07:06:40.466Z,18.10
2018-05-21T07:09:08.796Z,18.30
2018-05-21T07:11:37.878Z,18.30
2018-05-21T07:14:06.223Z,18.20
2018-05-21T07:16:34.555Z,17.80
2018-05-21T07:19:02.864Z,18.10
2018-05-21T07:21:31.210Z,18.10
2018-05-21T07:24:00.290Z,18.30
2018-05-21T07:26:28.687Z,18.30
2018-05-21T07:28:58.467Z,18.70
2018-05-21T07:31:26.831Z,19.10
2018-05-21T07:33:55.151Z,19.10
2018-05-21T07:36:24.273Z,19.10
2018-05-21T07:38:52.647Z,19.10
2018-05-21T07:41:20.972Z,19.10
2018-05-21T07:43:49.305Z,19.40
2018-05-21T07:46:17.623Z,19.00
2018-05-21T07:48:45.932Z,19.30
2018-05-21T07:51:15.099Z,19.30
2018-05-21T07:53:43.370Z,19.20
2018-05-21T07:56:11.723Z,19.50
2018-05-21T07:58:40.088Z,19.50
2018-05-21T08:01:08.404Z,19.40
2018-05-21T08:03:36.718Z,19.60
2018-05-21T08:06:05.814Z,20.50
2018-05-21T08:08:35.044Z,20.50
2018-05-21T08:11:03.436Z,20.30
2018-05-21T08:13:31.792Z,20.20
2018-05-21T08:16:00.946Z,20.20
2018-05-21T08:18:29.263Z,20.10
2018-05-21T08:20:57.615Z,20.30
2018-05-21T08:23:26.012Z,20.80
2018-05-21T08:25:54.339Z,20.50
2018-05-21T08:28:22.686Z,20.10
2018-05-21T08:30:51.040Z,20.30
2018-05-21T08:33:20.135Z,20.90
2018-05-21T08:35:49.237Z,21.20
2018-05-21T08:38:17.592Z,21.20
2018-05-21T08:40:45.906Z,21.60
2018-05-21T08:43:14.361Z,20.80
2018-05-21T08:45:43.438Z,21.30
2018-05-21T08:48:11.779Z,21.20
2018-05-21T08:50:40.116Z,21.40
2018-05-21T08:53:09.233Z,21.50
2018-05-21T08:55:37.553Z,21.50
2018-05-21T08:58:05.904Z,21.60
2018-05-21T09:00:34.224Z,21.90
2018-05-21T09:03:02.589Z,21.70
2018-05-21T09:05:30.893Z,21.40
2018-05-21T09:08:00.182Z,21.60
2018-05-21T09:10:28.493Z,21.60
2018-05-21T09:12:56.834Z,21.50
2018-05-21T09:15:25.158Z,21.20
2018-05-21T09:17:53.489Z,21.70
2018-05-21T09:20:21.820Z,21.60
2018-05-21T09:22:50.138Z,22.30
2018-05-21T09:25:18.509Z,22.30
2018-05-21T09:27:46.863Z,22.30
2018-05-21T09:30:15.182Z,22.10
2018-05-21T09:32:43.495Z,22.20
2018-05-21T09:35:11.816Z,22.20
2018-05-21T09:37:40.148Z,22.50
2018-05-21T09:40:08.485Z,22.60
2018-05-21T09:42:36.801Z,22.60
2018-05-21T09:45:05.931Z,22.50
2018-05-21T09:47:35.027Z,22.50
2018-05-21T09:50:03.382Z,22.40
2018-05-21T09:52:31.681Z,22.70
2018-05-21T09:55:00.029Z,22.80
2018-05-21T09:57:28.349Z,23.00
2018-05-21T09:59:56.728Z,23.30
2018-05-21T10:02:25.022Z,23.20
2018-05-21T10:04:53.353Z,23.40
2018-05-21T10:07:21.645Z,23.60
2018-05-21T10:09:49.982Z,24.00
2018-05-21T10:12:19.052Z,23.00
2018-05-21T10:14:47.350Z,23.00
2018-05-21T10:17:15.694Z,23.30
2018-05-21T10:19:44.021Z,23.20
2018-05-21T10:22:13.107Z,23.40
2018-05-21T10:24:42.173Z,23.10
2018-05-21T10:27:10.515Z,23.10
2018-05-21T10:29:38.839Z,23.60
2018-05-21T10:32:07.178Z,23.10
2018-05-21T10:34:35.495Z,23.10
2018-05-21T10:37:03.866Z,23.30
2018-05-21T10:39:32.175Z,23.60
2018-05-21T10:42:01.269Z,23.20
2018-05-21T10:44:30.349Z,23.70
2018-05-21T10:46:59.470Z,23.40
2018-05-21T10:49:27.829Z,23.30
2018-05-21T10:51:56.241Z,23.70
2018-05-21T10:54:24.593Z,23.80
2018-05-21T10:56:52.943Z,24.00
2018-05-21T10:59:21.262Z,23.90
2018-05-21T11:01:49.613Z,23.50
2018-05-21T11:04:17.959Z,23.70
2018-05-21T11:06:46.314Z,23.80
2018-05-21T11:09:14.708Z,24.10
2018-05-21T11:11:43.049Z,23.90
2018-05-21T11:14:11.395Z,24.00
2018-05-21T11:16:39.714Z,24.60
2018-05-21T11:19:08.054Z,24.10
2018-05-21T11:21:36.380Z,24.20
2018-05-21T11:24:04.715Z,24.50
2018-05-21T11:26:33.038Z,24.00
2018-05-21T11:29:01.394Z,23.80
2018-05-21T11:31:30.522Z,23.70
2018-05-21T11:33:58.878Z,23.60
2018-05-21T11:36:27.184Z,24.30
2018-05-21T11:38:56.332Z,24.40
2018-05-21T11:41:25.407Z,24.60
2018-05-21T11:43:53.755Z,24.60
2018-05-21T11:46:22.087Z,25.00
2018-05-21T11:48:51.205Z,24.00
2018-05-21T11:51:19.545Z,24.00
2018-05-21T11:53:48.647Z,24.60
2018-05-21T11:56:17.746Z,24.10
2018-05-21T11:58:46.860Z,24.80
2018-05-21T12:01:15.965Z,24.90
2018-05-21T12:03:44.329Z,24.90
2018-05-21T12:06:12.678Z,24.00
2018-05-21T12:08:41.827Z,24.20
2018-05-21T12:11:10.190Z,24.20
2018-05-21T12:13:38.593Z,24.40
2018-05-21T12:16:06.951Z,24.70
2018-05-21T12:18:36.082Z,24.90
2018-05-21T12:21:04.426Z,24.90
2018-05-21T12:23:32.770Z,24.90
2018-05-21T12:26:01.922Z,25.00
2018-05-21T12:28:30.290Z,25.00
2018-05-21T12:30:58.734Z,24.90
2018-05-21T12:33:27.066Z,24.50
2018-05-21T12:35:55.425Z,24.50
2018-05-21T12:38:23.896Z,24.70
2018-05-21T12:40:53.039Z,24.20
2018-05-21T12:43:22.122Z,23.90
2018-05-21T12:45:50.490Z,23.90
2018-05-21T12:48:18.815Z,24.50
2018-05-21T12:50:47.257Z,24.60
2018-05-21T12:53:15.800Z,25.10
2018-05-21T12:55:44.174Z,25.20
2018-05-21T12:58:13.273Z,25.50
2018-05-21T13:00:42.615Z,25.20
2018-05-21T13:03:11.016Z,25.10
2018-05-21T13:05:39.348Z,25.50
2018-05-21T13:08:08.618Z,24.70
2018-05-21T13:10:37.780Z,25.70
2018-05-21T13:13:06.113Z,25.70
2018-05-21T13:15:34.456Z,25.50
2018-05-21T13:18:02.849Z,25.50
2018-05-21T13:20:31.245Z,25.30
2018-05-21T13:23:00.336Z,24.90
2018-05-21T13:25:28.728Z,24.90
2018-05-21T13:27:57.142Z,24.90
2018-05-21T13:30:25.556Z,25.10
2018-05-21T13:32:53.967Z,25.50
2018-05-21T13:35:22.365Z,25.10
2018-05-21T13:37:50.681Z,25.00
2018-05-21T13:40:19.793Z,25.30
2018-05-21T13:42:48.093Z,25.30
2018-05-21T13:45:17.184Z,25.60
2018-05-21T13:47:45.554Z,25.50
2018-05-21T13:50:14.649Z,25.40
2018-05-21T13:52:43.747Z,24.90
2018-05-21T13:55:12.122Z,24.80
2018-05-21T13:57:40.549Z,24.90
2018-05-21T14:00:08.925Z,24.90
2018-05-21T14:02:37.790Z,24.70
2018-05-21T14:05:06.171Z,24.60
2018-05-21T14:07:35.627Z,24.40
2018-05-21T14:10:04.030Z,24.60
2018-05-21T14:12:32.495Z,24.80
2018-05-21T14:15:00.918Z,25.00
2018-05-21T14:17:29.287Z,25.00
2018-05-21T14:19:57.772Z,25.10
2018-05-21T14:22:26.279Z,25.40
2018-05-21T14:24:54.715Z,25.00
2018-05-21T14:27:23.194Z,25.60
2018-05-21T14:29:51.747Z,25.40
2018-05-21T14:32:20.013Z,24.90
2018-05-21T14:34:48.491Z,24.80
2018-05-21T14:37:16.859Z,25.20
2018-05-21T14:39:45.261Z,25.00
2018-05-21T14:42:13.959Z,25.20
2018-05-21T14:44:42.283Z,24.90
2018-05-21T14:47:10.624Z,25.30
2018-05-21T14:49:40.480Z,25.50
2018-05-21T14:52:08.772Z,25.50
2018-05-21T14:54:37.188Z,25.40
2018-05-21T14:57:05.510Z,25.40
2018-05-21T14:59:33.861Z,25.50
2018-05-21T15:02:02.299Z,25.70
2018-05-21T15:04:30.572Z,25.90
2018-05-21T15:09:19.718Z,25.90
2018-05-21T15:11:48.788Z,25.20
2018-05-21T15:14:17.126Z,25.20
2018-05-21T15:16:45.426Z,25.40
2018-05-21T15:19:13.787Z,25.60
2018-05-21T15:21:42.088Z,25.50
2018-05-21T15:24:10.448Z,25.50
2018-05-21T15:26:38.785Z,25.50
2018-05-21T15:29:07.107Z,25.60
2018-05-21T15:31:35.447Z,25.10
2018-05-21T15:34:03.788Z,24.80
2018-05-21T15:36:32.170Z,24.90
2018-05-21T15:39:00.482Z,24.70
2018-05-21T15:41:28.884Z,24.70
2018-05-21T15:43:57.217Z,24.60
2018-05-21T15:46:25.592Z,25.00
2018-05-21T15:48:53.930Z,24.60
2018-05-21T15:51:22.297Z,24.50
2018-05-21T15:53:50.635Z,24.60
2018-05-21T15:56:19.730Z,25.00
2018-05-21T15:58:48.808Z,25.20
2018-05-21T16:01:17.147Z,25.20
2018-05-21T16:03:45.454Z,25.20
2018-05-21T16:06:13.806Z,25.00
2018-05-21T16:08:42.199Z,24.60
2018-05-21T16:11:11.244Z,24.50
2018-05-21T16:13:39.571Z,24.50
2018-05-21T16:16:07.907Z,24.40
2018-05-21T16:18:36.254Z,24.40
2018-05-21T16:21:05.392Z,24.50
2018-05-21T16:23:33.695Z,24.50
2018-05-21T16:26:02.030Z,24.60
2018-05-21T16:28:30.357Z,24.80
2018-05-21T16:30:58.762Z,24.80
2018-05-21T16:33:27.862Z,24.60
2018-05-21T16:38:56.706Z,24.80
2018-05-21T16:41:25.051Z,24.80
2018-05-21T16:43:54.151Z,24.60
2018-05-21T16:46:22.485Z,24.60
2018-05-21T16:48:50.810Z,24.70
2018-05-21T16:51:19.961Z,24.80
2018-05-21T16:53:48.383Z,24.80
2018-05-21T16:56:16.632Z,24.80
2018-05-21T16:58:45.024Z,24.80
2018-05-21T17:01:13.345Z,24.70
2018-05-21T17:03:41.727Z,24.70
2018-05-21T17:06:10.079Z,24.80
2018-05-21T17:08:39.178Z,24.80
2018-05-21T17:11:08.285Z,24.70
2018-05-21T17:13:36.626Z,24.70
2018-05-21T17:16:04.960Z,24.70
2018-05-21T17:18:33.301Z,24.40
2018-05-21T17:21:02.378Z,24.60
2018-05-21T17:23:31.497Z,24.60
2018-05-21T17:26:00.590Z,24.60
2018-05-21T17:28:29.011Z,24.60
2018-05-21T17:30:57.346Z,24.60
2018-05-21T17:33:25.824Z,24.30
2018-05-21T17:35:54.160Z,24.40
2018-05-21T17:38:22.504Z,24.20
2018-05-21T17:40:51.587Z,24.20
2018-05-21T17:43:20.675Z,24.10
2018-05-21T17:45:49.768Z,24.10
2018-05-21T17:48:18.886Z,24.20
2018-05-21T17:50:47.954Z,24.20
2018-05-21T17:53:16.299Z,24.20
2018-05-21T17:55:44.642Z,24.00
2018-05-21T17:58:12.950Z,23.70
2018-05-21T18:00:41.345Z,23.90
2018-05-21T18:03:09.682Z,23.70
2018-05-21T18:05:38.017Z,23.60
2018-05-21T18:08:07.158Z,24.10
2018-05-21T18:10:35.507Z,24.10
2018-05-21T18:13:03.811Z,24.10
2018-05-21T18:15:32.140Z,24.10
2018-05-21T18:18:00.469Z,23.90
2018-05-21T18:20:28.796Z,23.80
2018-05-21T18:22:57.119Z,23.90
2018-05-21T18:25:26.223Z,23.70
2018-05-21T18:27:54.536Z,23.70
2018-05-21T18:30:22.895Z,23.90
2018-05-21T18:32:51.232Z,23.90
2018-05-21T18:35:20.343Z,23.90
2018-05-21T18:37:48.642Z,23.90
2018-05-21T18:40:16.975Z,23.90
2018-05-21T18:42:46.065Z,23.40
2018-05-21T18:45:14.403Z,23.30
2018-05-21T18:47:42.728Z,23.30
2018-05-21T18:50:11.087Z,23.30
2018-05-21T18:52:40.436Z,23.40
2018-05-21T18:55:08.738Z,23.10
2018-05-21T18:57:37.119Z,22.90
2018-05-21T19:00:05.435Z,22.80
2018-05-21T19:02:33.773Z,22.60
2018-05-21T19:05:02.078Z,22.30
2018-05-21T19:07:30.447Z,22.30
2018-05-21T19:09:58.795Z,21.80
2018-05-21T19:12:27.134Z,21.70
2018-05-21T19:14:56.217Z,21.80
2018-05-21T19:17:24.554Z,21.70
2018-05-21T19:19:52.850Z,21.60
2018-05-21T19:22:21.221Z,21.50
2018-05-21T19:24:49.515Z,21.60
2018-05-21T19:27:17.843Z,21.40
2018-05-21T19:29:46.153Z,21.20
2018-05-21T19:32:14.470Z,21.10
2018-05-21T19:34:42.781Z,20.90
2018-05-21T19:37:11.121Z,20.80
2018-05-21T19:39:39.427Z,20.60
2018-05-21T19:42:07.749Z,20.70
2018-05-21T19:44:36.050Z,20.80
2018-05-21T19:47:04.362Z,21.00
2018-05-21T19:49:32.679Z,20.80
2018-05-21T19:52:00.973Z,20.60
2018-05-21T19:54:29.299Z,20.60
2018-05-21T19:56:57.600Z,19.90
2018-05-21T19:59:25.927Z,20.00
2018-05-21T20:01:54.988Z,20.00
2018-05-21T20:04:24.074Z,20.10
2018-05-21T20:06:52.385Z,20.00
2018-05-21T20:09:20.710Z,20.10
2018-05-21T20:11:49.022Z,20.00
2018-05-21T20:14:17.362Z,19.90
2018-05-21T20:16:45.670Z,19.90
2018-05-21T20:19:14.039Z,19.60
2018-05-21T20:21:42.321Z,19.50
2018-05-21T20:24:10.643Z,19.50
2018-05-21T20:26:39.706Z,19.40
2018-05-21T20:29:08.052Z,19.40
2018-05-21T20:31:36.385Z,19.30
2018-05-21T20:34:05.474Z,19.10
2018-05-21T20:36:33.788Z,19.00
2018-05-21T20:39:02.135Z,19.10
2018-05-21T20:41:31.226Z,18.80
2018-05-21T20:43:59.717Z,18.80
2018-05-21T20:46:28.022Z,18.70
2018-05-21T20:48:56.354Z,18.60
2018-05-21T20:51:24.684Z,18.60
2018-05-21T20:53:52.983Z,18.10
2018-05-21T20:56:21.307Z,18.10
2018-05-21T20:58:50.364Z,17.90
2018-05-21T21:01:18.756Z,17.90
2018-05-21T21:03:47.029Z,17.80
2018-05-21T21:06:15.363Z,17.80
2018-05-21T21:08:43.879Z,17.80
2018-05-21T21:11:12.202Z,17.70
2018-05-21T21:13:41.340Z,17.50
2018-05-21T21:16:09.662Z,17.50
2018-05-21T21:18:38.005Z,17.40
2018-05-21T21:21:06.358Z,17.50
2018-05-21T21:23:34.679Z,17.50
2018-05-21T21:26:02.998Z,17.30
2018-05-21T21:28:31.318Z,17.20
2018-05-21T21:30:59.779Z,17.10
2018-05-21T21:33:28.215Z,17.00
2018-05-21T21:35:57.333Z,17.10
2018-05-21T21:38:25.743Z,17.00
2018-05-21T21:40:54.042Z,16.80
2018-05-21T21:43:22.368Z,16.70
2018-05-21T21:45:50.683Z,16.80
2018-05-21T21:48:19.014Z,16.70
2018-05-21T21:50:48.074Z,16.50
2018-05-21T21:53:16.397Z,16.50
2018-05-21T21:55:44.720Z,16.50
2018-05-21T21:58:13.054Z,16.40
2018-05-21T22:00:41.353Z,16.60
2018-05-21T22:03:09.715Z,16.60
2018-05-21T22:05:38.022Z,16.60
2018-05-21T22:08:06.348Z,16.60
2018-05-21T22:10:35.419Z,16.50
2018-05-21T22:13:03.751Z,16.40
2018-05-21T22:15:32.060Z,16.10
2018-05-21T22:18:00.386Z,15.90
2018-05-21T22:20:29.454Z,15.70
2018-05-21T22:22:57.793Z,15.60
2018-05-21T22:25:26.094Z,15.50
2018-05-21T22:27:54.413Z,15.70
2018-05-21T22:30:23.491Z,15.60
2018-05-21T22:32:51.813Z,15.60
2018-05-21T22:35:20.115Z,15.70
2018-05-21T22:37:48.449Z,15.70
2018-05-21T22:40:16.753Z,15.70
2018-05-21T22:42:45.150Z,15.70
2018-05-21T22:45:13.490Z,15.70
2018-05-21T22:47:41.806Z,15.70
2018-05-21T22:50:10.133Z,15.60
2018-05-21T22:52:39.199Z,15.60
2018-05-21T22:55:07.539Z,15.50
2018-05-21T22:57:35.833Z,15.50
2018-05-21T23:00:04.165Z,15.60
2018-05-21T23:02:32.218Z,15.60
2018-05-21T23:05:01.325Z,15.50
2018-05-21T23:07:29.810Z,15.50
2018-05-21T23:09:59.060Z,15.50
2018-05-21T23:12:27.351Z,15.50
2018-05-21T23:14:55.845Z,15.40
2018-05-21T23:17:24.161Z,15.30
2018-05-21T23:19:52.482Z,15.30
2018-05-21T23:22:20.785Z,15.30
2018-05-21T23:24:49.908Z,15.30
2018-05-21T23:27:18.215Z,15.30
2018-05-21T23:29:46.544Z,15.40
2018-05-21T23:32:15.617Z,15.40
2018-05-21T23:34:44.087Z,15.40
2018-05-21T23:37:12.381Z,15.40
2018-05-21T23:39:41.703Z,15.30
2018-05-21T23:42:10.773Z,15.10
2018-05-21T23:44:39.068Z,15.10
2018-05-21T23:47:08.150Z,15.20
2018-05-21T23:49:36.455Z,15.20
2018-05-21T23:52:04.773Z,15.10
2018-05-21T23:54:33.097Z,15.00
2018-05-21T23:57:02.190Z,15.10
2018-05-21T23:59:30.511Z,15.00
